createdAt,value
2023-09-04T00:02:26.238Z,15.07
2023-09-04T00:04:53.264Z,15.00
2023-09-04T00:07:20.525Z,14.92
2023-09-04T00:09:47.129Z,14.89
2023-09-04T00:12:13.637Z,14.87
2023-09-04T00:14:40.330Z,14.82
2023-09-04T00:17:07.122Z,14.81
2023-09-04T00:19:35.304Z,14.79
2023-09-04T00:22:01.789Z,14.73
2023-09-04T00:24:28.363Z,14.73
2023-09-04T00:26:54.878Z,14.78
2023-09-04T00:29:21.402Z,14.79
2023-09-04T00:31:47.948Z,14.85
2023-09-04T00:34:14.523Z,14.87
2023-09-04T00:36:41.171Z,14.91
2023-09-04T00:39:07.842Z,14.92
2023-09-04T00:41:34.438Z,14.94
2023-09-04T00:44:00.968Z,14.91
2023-09-04T00:46:27.866Z,14.85
2023-09-04T00:48:54.984Z,14.87
2023-09-04T00:51:21.543Z,14.86
2023-09-04T00:53:49.352Z,14.87
2023-09-04T00:56:17.497Z,14.80
2023-09-04T00:58:44.719Z,14.73
2023-09-04T01:01:11.985Z,14.70
2023-09-04T01:03:38.646Z,14.68
2023-09-04T01:06:05.647Z,14.65
2023-09-04T01:08:32.215Z,14.55
2023-09-04T01:11:27.372Z,14.54
2023-09-04T01:13:55.649Z,14.49
2023-09-04T01:16:23.268Z,14.48
2023-09-04T01:18:50.556Z,14.44
2023-09-04T01:21:17.447Z,14.37
2023-09-04T01:23:44.450Z,14.32
2023-09-04T01:26:36.973Z,14.27
2023-09-04T01:29:19.782Z,14.32
2023-09-04T01:31:57.479Z,14.30
2023-09-04T01:34:30.870Z,14.27
2023-09-04T01:36:58.734Z,14.27
2023-09-04T01:39:26.763Z,14.26
2023-09-04T01:41:53.315Z,14.25
2023-09-04T01:44:20.624Z,14.20
2023-09-04T01:46:47.257Z,14.14
2023-09-04T01:49:13.859Z,14.09
2023-09-04T01:51:40.561Z,14.08
2023-09-04T01:54:07.144Z,14.10
2023-09-04T01:56:33.992Z,14.13
2023-09-04T01:59:00.631Z,14.08
2023-09-04T02:01:27.276Z,14.09
2023-09-04T02:03:57.744Z,14.12
2023-09-04T02:06:28.902Z,14.11
2023-09-04T02:08:55.432Z,14.12
2023-09-04T02:11:21.977Z,14.14
2023-09-04T02:13:48.994Z,14.09
2023-09-04T02:16:15.674Z,14.03
2023-09-04T02:18:42.963Z,13.96
2023-09-04T02:21:09.776Z,13.94
2023-09-04T02:23:36.476Z,13.95
2023-09-04T02:26:03.798Z,13.94
2023-09-04T02:28:31.728Z,13.88
2023-09-04T02:30:58.410Z,13.88
2023-09-04T02:33:24.914Z,13.87
2023-09-04T02:35:53.125Z,13.85
2023-09-04T02:38:20.427Z,13.83
2023-09-04T02:40:46.954Z,13.81
2023-09-04T02:43:13.477Z,13.79
2023-09-04T02:45:41.152Z,13.82
2023-09-04T02:48:07.811Z,13.77
2023-09-04T02:50:35.357Z,13.73
2023-09-04T02:53:01.893Z,13.77
2023-09-04T02:55:28.501Z,13.80
2023-09-04T02:57:55.075Z,13.82
2023-09-04T03:00:21.613Z,13.81
2023-09-04T03:02:48.166Z,13.82
2023-09-04T03:05:14.827Z,13.85
2023-09-04T03:07:41.294Z,13.83
2023-09-04T03:10:08.137Z,13.77
2023-09-04T03:12:34.911Z,13.72
2023-09-04T03:15:06.730Z,13.72
2023-09-04T03:17:35.232Z,13.75
2023-09-04T03:20:05.786Z,13.72
2023-09-04T03:22:32.404Z,13.72
2023-09-04T03:24:58.915Z,13.71
2023-09-04T03:27:26.849Z,13.67
2023-09-04T03:29:53.641Z,13.65
2023-09-04T03:32:20.184Z,13.56
2023-09-04T03:34:46.799Z,13.50
2023-09-04T03:37:13.595Z,13.46
2023-09-04T03:39:40.160Z,13.43
2023-09-04T03:42:07.633Z,13.46
2023-09-04T03:44:34.350Z,13.50
2023-09-04T03:47:00.896Z,13.37
2023-09-04T03:49:27.450Z,13.32
2023-09-04T03:51:54.155Z,13.31
2023-09-04T03:54:20.759Z,13.33
2023-09-04T03:56:47.257Z,13.37
2023-09-04T03:59:13.772Z,13.32
2023-09-04T04:01:41.132Z,13.33
2023-09-04T04:04:12.163Z,13.41
2023-09-04T04:06:39.026Z,13.36
2023-09-04T04:09:07.957Z,13.25
2023-09-04T04:11:38.268Z,13.20
2023-09-04T04:14:04.951Z,13.17
2023-09-04T04:16:38.354Z,13.10
2023-09-04T04:19:05.579Z,13.04
2023-09-04T04:21:32.331Z,13.04
2023-09-04T04:23:58.946Z,13.09
2023-09-04T04:26:25.914Z,13.16
2023-09-04T04:28:52.400Z,13.14
2023-09-04T04:31:18.971Z,13.16
2023-09-04T04:33:45.800Z,13.16
2023-09-04T04:36:12.538Z,13.09
2023-09-04T04:38:39.021Z,12.94
2023-09-04T04:41:05.606Z,12.81
2023-09-04T04:43:33.067Z,12.77
2023-09-04T04:45:59.676Z,12.87
2023-09-04T04:48:26.512Z,12.93
2023-09-04T04:50:55.942Z,12.96
2023-09-04T04:53:23.231Z,12.98
2023-09-04T04:55:49.729Z,12.97
2023-09-04T04:58:16.265Z,12.93
2023-09-04T05:00:42.756Z,12.95
2023-09-04T05:03:10.213Z,12.99
2023-09-04T05:05:36.789Z,12.91
2023-09-04T05:08:03.528Z,12.88
2023-09-04T05:10:30.709Z,12.90
2023-09-04T05:12:57.237Z,12.92
2023-09-04T05:15:23.776Z,12.76
2023-09-04T05:17:50.294Z,12.72
2023-09-04T05:20:17.169Z,12.75
2023-09-04T05:22:43.671Z,12.80
2023-09-04T05:25:10.653Z,12.89
2023-09-04T05:27:37.164Z,12.85
2023-09-04T05:30:04.338Z,12.90
2023-09-04T05:32:30.883Z,12.97
2023-09-04T05:34:57.891Z,13.10
2023-09-04T05:37:24.387Z,13.26
2023-09-04T05:39:51.031Z,13.33
2023-09-04T05:42:17.711Z,13.31
2023-09-04T05:44:44.238Z,13.25
2023-09-04T05:47:10.798Z,13.20
2023-09-04T05:49:37.805Z,13.22
2023-09-04T05:52:04.689Z,13.34
2023-09-04T05:54:31.227Z,13.50
2023-09-04T05:56:57.763Z,13.59
2023-09-04T05:59:24.833Z,13.65
2023-09-04T06:01:51.408Z,13.65
2023-09-04T06:04:17.945Z,13.68
2023-09-04T06:06:44.437Z,13.65
2023-09-04T06:09:11.012Z,13.68
2023-09-04T06:11:37.544Z,13.76
2023-09-04T06:14:04.214Z,13.91
2023-09-04T06:16:30.818Z,13.93
2023-09-04T06:18:57.404Z,14.03
2023-09-04T06:21:24.257Z,14.14
2023-09-04T06:23:51.355Z,14.20
2023-09-04T06:26:17.886Z,14.32
2023-09-04T06:28:44.541Z,14.48
2023-09-04T06:31:11.381Z,14.54
2023-09-04T06:33:39.230Z,14.60
2023-09-04T06:36:06.430Z,14.63
2023-09-04T06:38:33.128Z,14.71
2023-09-04T06:40:59.691Z,14.77
2023-09-04T06:43:28.464Z,14.80
2023-09-04T06:45:55.192Z,14.90
2023-09-04T06:48:22.194Z,14.99
2023-09-04T06:50:50.940Z,15.14
2023-09-04T06:53:17.676Z,15.25
2023-09-04T06:55:44.941Z,15.37
2023-09-04T06:58:11.528Z,15.49
2023-09-04T07:00:38.313Z,15.59
2023-09-04T07:03:06.247Z,15.71
2023-09-04T07:05:33.383Z,15.84
2023-09-04T07:07:59.974Z,15.96
2023-09-04T07:10:26.594Z,16.03
2023-09-04T07:12:53.861Z,16.13
2023-09-04T07:15:20.474Z,16.25
2023-09-04T07:17:47.124Z,16.36
2023-09-04T07:20:13.937Z,16.45
2023-09-04T07:22:40.453Z,16.56
2023-09-04T07:25:07.814Z,16.68
2023-09-04T07:27:34.433Z,16.84
2023-09-04T07:30:01.170Z,16.99
2023-09-04T07:32:27.766Z,17.13
2023-09-04T07:34:57.376Z,17.26
2023-09-04T07:37:28.182Z,17.37
2023-09-04T07:39:55.393Z,17.50
2023-09-04T07:42:25.964Z,17.61
2023-09-04T07:44:52.545Z,17.75
2023-09-04T07:47:19.046Z,17.89
2023-09-04T07:49:45.572Z,18.02
2023-09-04T07:52:12.086Z,18.11
2023-09-04T07:54:38.765Z,18.24
2023-09-04T07:57:05.511Z,18.33
2023-09-04T07:59:32.603Z,18.47
2023-09-04T08:02:00.152Z,18.60
2023-09-04T08:04:26.831Z,18.71
2023-09-04T08:06:53.421Z,18.84
2023-09-04T08:09:19.934Z,18.94
2023-09-04T08:11:46.525Z,19.05
2023-09-04T08:14:13.116Z,19.18
2023-09-04T08:16:39.670Z,19.29
2023-09-04T08:19:09.147Z,19.36
2023-09-04T08:21:36.164Z,19.43
2023-09-04T08:24:02.860Z,19.51
2023-09-04T08:26:30.856Z,19.62
2023-09-04T08:28:57.729Z,19.73
2023-09-04T08:31:24.474Z,19.84
2023-09-04T08:33:51.086Z,19.96
2023-09-04T08:36:17.610Z,20.08
2023-09-04T08:38:44.372Z,20.19
2023-09-04T08:41:16.575Z,20.26
2023-09-04T08:43:45.884Z,20.40
2023-09-04T08:46:16.502Z,20.48
2023-09-04T08:48:45.410Z,20.65
2023-09-04T08:51:12.621Z,20.77
2023-09-04T08:53:39.505Z,20.82
2023-09-04T08:56:06.210Z,20.99
2023-09-04T08:58:33.169Z,21.07
2023-09-04T09:01:00.279Z,21.11
2023-09-04T09:03:27.343Z,21.21
2023-09-04T09:05:57.314Z,21.29
2023-09-04T09:08:25.079Z,21.33
2023-09-04T09:10:52.831Z,21.46
2023-09-04T09:13:20.500Z,21.56
2023-09-04T09:15:47.152Z,21.65
2023-09-04T09:18:34.248Z,21.70
2023-09-04T09:21:00.791Z,21.74
2023-09-04T09:23:27.368Z,21.84
2023-09-04T09:28:23.392Z,22.01
2023-09-04T09:30:51.487Z,22.05
2023-09-04T09:33:21.756Z,22.14
2023-09-04T09:35:48.307Z,22.17
2023-09-04T09:38:15.037Z,22.21
2023-09-04T09:40:41.549Z,22.18
2023-09-04T09:43:08.320Z,22.17
2023-09-04T09:45:36.505Z,22.23
2023-09-04T09:48:12.551Z,22.20
2023-09-04T09:50:41.812Z,22.24
2023-09-04T09:53:08.469Z,22.21
2023-09-04T09:55:36.081Z,22.24
2023-09-04T09:58:03.128Z,22.16
2023-09-04T10:00:30.461Z,22.15
2023-09-04T10:02:58.369Z,22.16
2023-09-04T10:05:26.259Z,22.20
2023-09-04T10:08:03.679Z,22.20
2023-09-04T10:10:37.015Z,22.17
2023-09-04T10:13:09.627Z,22.16
2023-09-04T10:15:38.100Z,22.15
2023-09-04T10:18:28.144Z,22.11
2023-09-04T10:20:56.321Z,22.14
2023-09-04T10:23:25.804Z,22.15
2023-09-04T10:26:27.439Z,22.21
2023-09-04T10:29:06.804Z,22.19
2023-09-04T10:31:36.216Z,22.18
2023-09-04T10:34:03.970Z,22.21
2023-09-04T10:36:31.762Z,22.27
2023-09-04T10:39:02.881Z,22.33
2023-09-04T10:41:32.394Z,22.39
2023-09-04T10:43:59.232Z,22.40
2023-09-04T10:46:25.923Z,22.40
2023-09-04T10:48:54.354Z,22.44
2023-09-04T10:51:33.106Z,22.50
2023-09-04T10:54:24.274Z,22.54
2023-09-04T10:57:06.980Z,22.59
2023-09-04T10:59:59.336Z,22.65
2023-09-04T11:02:34.813Z,22.70
2023-09-04T11:05:03.058Z,22.71
2023-09-04T11:07:30.524Z,22.80
2023-09-04T11:10:03.820Z,22.83
2023-09-04T11:12:34.268Z,22.81
2023-09-04T11:15:01.803Z,22.82
2023-09-04T11:17:30.778Z,22.85
2023-09-04T11:19:58.951Z,22.88
2023-09-04T11:22:26.421Z,22.93
2023-09-04T11:24:56.814Z,23.04
2023-09-04T11:27:24.589Z,23.00
2023-09-04T11:29:52.165Z,23.02
2023-09-04T11:32:19.975Z,23.02
2023-09-04T11:34:47.403Z,23.04
2023-09-04T11:37:14.446Z,23.08
2023-09-04T11:40:00.971Z,23.12
2023-09-04T11:42:31.720Z,23.11
2023-09-04T11:44:58.289Z,23.11
2023-09-04T11:47:25.593Z,23.16
2023-09-04T11:49:52.186Z,23.23
2023-09-04T11:52:23.840Z,23.23
2023-09-04T11:54:53.538Z,23.24
2023-09-04T11:57:20.401Z,23.22
2023-09-04T11:59:46.962Z,23.28
2023-09-04T12:02:13.915Z,23.30
2023-09-04T12:04:41.540Z,23.30
2023-09-04T12:07:13.037Z,23.33
2023-09-04T12:09:39.766Z,23.36
2023-09-04T12:12:06.584Z,23.47
2023-09-04T12:14:33.546Z,23.64
2023-09-04T12:17:00.708Z,23.62
2023-09-04T12:19:28.101Z,23.65
2023-09-04T12:21:54.760Z,23.71
2023-09-04T12:24:22.460Z,23.73
2023-09-04T12:26:51.039Z,23.69
2023-09-04T12:29:19.856Z,23.71
2023-09-04T12:31:50.007Z,23.76
2023-09-04T12:34:16.919Z,23.78
2023-09-04T12:36:43.579Z,23.80
2023-09-04T12:39:10.095Z,23.91
2023-09-04T12:41:37.794Z,24.02
2023-09-04T12:44:05.149Z,24.04
2023-09-04T12:46:31.624Z,24.09
2023-09-04T12:48:58.228Z,24.10
2023-09-04T12:51:26.409Z,24.12
2023-09-04T12:53:53.009Z,24.21
2023-09-04T12:56:19.763Z,24.35
2023-09-04T12:58:46.318Z,24.55
2023-09-04T13:01:12.980Z,24.85
2023-09-04T13:03:39.704Z,24.93
2023-09-04T13:06:07.017Z,24.81
2023-09-04T13:08:33.643Z,24.74
2023-09-04T13:11:00.333Z,24.76
2023-09-04T13:13:27.347Z,24.80
2023-09-04T13:15:54.098Z,24.90
2023-09-04T13:18:20.605Z,24.97
2023-09-04T13:20:47.164Z,25.10
2023-09-04T13:23:13.852Z,25.14
2023-09-04T13:25:40.710Z,25.32
2023-09-04T13:28:07.291Z,25.50
2023-09-04T13:30:34.187Z,25.50
2023-09-04T13:33:00.755Z,25.46
2023-09-04T13:35:27.579Z,25.48
2023-09-04T13:37:54.119Z,25.50
2023-09-04T13:40:20.780Z,25.52
2023-09-04T13:42:47.301Z,25.49
2023-09-04T13:45:13.907Z,25.49
2023-09-04T13:47:40.440Z,25.48
2023-09-04T13:50:07.482Z,25.40
2023-09-04T13:52:34.047Z,25.35
2023-09-04T13:55:00.758Z,25.39
2023-09-04T13:57:27.249Z,25.34
2023-09-04T13:59:53.796Z,25.32
2023-09-04T14:02:20.534Z,25.30
2023-09-04T14:04:47.232Z,25.29
2023-09-04T14:07:14.081Z,25.25
2023-09-04T14:09:40.770Z,25.18
2023-09-04T14:12:08.909Z,25.14
2023-09-04T14:14:35.523Z,25.14
2023-09-04T14:17:02.089Z,25.11
2023-09-04T14:19:28.628Z,25.06
2023-09-04T14:21:55.261Z,24.99
2023-09-04T14:24:22.116Z,25.01
2023-09-04T14:26:48.865Z,25.01
2023-09-04T14:29:15.483Z,25.01
2023-09-04T14:31:42.388Z,25.05
2023-09-04T14:34:09.053Z,25.08
2023-09-04T14:36:35.931Z,25.09
2023-09-04T14:39:02.692Z,25.12
2023-09-04T14:41:33.249Z,25.16
2023-09-04T14:44:00.220Z,25.20
2023-09-04T14:46:27.564Z,25.21
2023-09-04T14:48:55.469Z,25.25
2023-09-04T14:51:23.110Z,25.35
2023-09-04T14:53:54.429Z,25.37
2023-09-04T14:56:21.909Z,25.33
2023-09-04T14:58:49.195Z,25.30
2023-09-04T15:01:17.617Z,25.27
2023-09-04T15:03:46.397Z,25.23
2023-09-04T15:06:13.912Z,25.24
2023-09-04T15:08:41.153Z,25.22
2023-09-04T15:11:14.342Z,25.20
2023-09-04T15:13:43.673Z,25.21
2023-09-04T15:16:10.797Z,25.21
2023-09-04T15:18:37.651Z,25.25
2023-09-04T15:21:07.060Z,25.28
2023-09-04T15:23:33.775Z,25.29
2023-09-04T15:26:00.320Z,25.28
2023-09-04T15:28:28.655Z,25.30
2023-09-04T15:30:58.719Z,25.34
2023-09-04T15:33:29.570Z,25.34
2023-09-04T15:36:00.750Z,25.33
2023-09-04T15:38:27.392Z,25.36
2023-09-04T15:40:55.293Z,25.32
2023-09-04T15:43:22.114Z,25.27
2023-09-04T15:45:49.551Z,25.23
2023-09-04T15:48:17.447Z,25.18
2023-09-04T15:50:44.462Z,25.11
2023-09-04T15:53:11.070Z,25.09
2023-09-04T15:55:37.619Z,25.09
2023-09-04T15:58:04.387Z,25.10
2023-09-04T16:00:31.027Z,25.06
2023-09-04T16:02:57.563Z,25.02
2023-09-04T16:05:24.313Z,25.01
2023-09-04T16:07:50.818Z,24.99
2023-09-04T16:10:17.461Z,24.92
2023-09-04T16:12:44.034Z,24.88
2023-09-04T16:15:10.768Z,24.83
2023-09-04T16:17:37.365Z,24.83
2023-09-04T16:20:04.963Z,24.87
2023-09-04T16:22:31.533Z,24.85
2023-09-04T16:24:58.935Z,24.84
2023-09-04T16:27:28.849Z,24.78
2023-09-04T16:29:55.392Z,24.75
2023-09-04T16:32:21.970Z,24.73
2023-09-04T16:34:48.766Z,24.72
2023-09-04T16:37:20.064Z,24.70
2023-09-04T16:39:50.044Z,24.67
2023-09-04T16:42:16.972Z,24.69
2023-09-04T16:44:44.832Z,24.70
2023-09-04T16:47:11.494Z,24.68
2023-09-04T16:49:38.082Z,24.68
2023-09-04T16:52:04.979Z,24.64
2023-09-04T16:54:31.523Z,24.63
2023-09-04T16:56:58.110Z,24.63
2023-09-04T16:59:24.681Z,24.57
2023-09-04T17:01:51.438Z,24.50
2023-09-04T17:04:18.168Z,24.43
2023-09-04T17:06:45.074Z,24.37
2023-09-04T17:09:11.829Z,24.27
2023-09-04T17:11:38.372Z,24.22
2023-09-04T17:14:04.949Z,24.20
2023-09-04T17:16:31.512Z,24.19
2023-09-04T17:18:58.560Z,24.17
2023-09-04T17:21:25.193Z,24.15
2023-09-04T17:23:52.565Z,24.06
2023-09-04T17:26:19.629Z,24.00
2023-09-04T17:28:46.198Z,23.99
2023-09-04T17:31:12.875Z,23.88
2023-09-04T17:33:39.444Z,23.85
2023-09-04T17:36:08.294Z,23.82
2023-09-04T17:38:36.764Z,23.79
2023-09-04T17:41:05.236Z,23.75
2023-09-04T17:43:31.982Z,23.63
2023-09-04T17:45:58.639Z,23.61
2023-09-04T17:48:25.703Z,23.58
2023-09-04T17:50:53.619Z,23.53
2023-09-04T17:53:20.420Z,23.41
2023-09-04T17:55:47.285Z,23.26
2023-09-04T17:58:13.795Z,23.15
2023-09-04T18:00:43.187Z,23.07
2023-09-04T18:03:09.848Z,23.04
2023-09-04T18:05:36.587Z,22.99
2023-09-04T18:08:03.526Z,22.98
2023-09-04T18:10:30.460Z,22.95
2023-09-04T18:12:57.155Z,22.86
2023-09-04T18:15:23.935Z,22.77
2023-09-04T18:17:51.193Z,22.67
2023-09-04T18:20:18.103Z,22.60
2023-09-04T18:22:47.545Z,22.54
2023-09-04T18:25:16.201Z,22.49
2023-09-04T18:27:44.402Z,22.45
2023-09-04T18:30:13.039Z,22.41
2023-09-04T18:32:39.660Z,22.37
2023-09-04T18:35:07.501Z,22.36
2023-09-04T18:37:34.114Z,22.29
2023-09-04T18:40:00.712Z,22.21
2023-09-04T18:42:27.688Z,22.15
2023-09-04T18:44:54.241Z,22.09
2023-09-04T18:47:20.932Z,22.02
2023-09-04T18:49:53.876Z,21.95
2023-09-04T18:52:21.227Z,21.95
2023-09-04T18:54:48.555Z,21.90
2023-09-04T18:57:18.245Z,21.78
2023-09-04T18:59:44.892Z,21.80
2023-09-04T19:02:11.640Z,21.78
2023-09-04T19:04:38.242Z,21.77
2023-09-04T19:07:05.094Z,21.72
2023-09-04T19:09:33.193Z,21.68
2023-09-04T19:12:00.151Z,21.66
2023-09-04T19:14:26.954Z,21.65
2023-09-04T19:16:53.501Z,21.61
2023-09-04T19:19:20.071Z,21.55
2023-09-04T19:21:46.644Z,21.54
2023-09-04T19:24:13.205Z,21.54
2023-09-04T19:26:39.803Z,21.53
2023-09-04T19:29:06.743Z,21.51
2023-09-04T19:31:33.488Z,21.52
2023-09-04T19:34:00.008Z,21.46
2023-09-04T19:36:28.442Z,21.45
2023-09-04T19:38:55.080Z,21.40
2023-09-04T19:41:22.496Z,21.39
2023-09-04T19:43:49.507Z,21.30
2023-09-04T19:46:16.331Z,21.26
2023-09-04T19:48:43.080Z,21.20
2023-09-04T19:51:09.673Z,21.15
2023-09-04T19:53:36.214Z,21.16
2023-09-04T19:56:03.753Z,21.17
2023-09-04T19:58:31.050Z,21.10
2023-09-04T20:00:58.004Z,21.07
2023-09-04T20:03:24.656Z,21.02
2023-09-04T20:05:51.242Z,21.02
2023-09-04T20:08:17.807Z,21.00
2023-09-04T20:10:44.406Z,21.02
2023-09-04T20:13:11.016Z,20.99
2023-09-04T20:15:37.585Z,20.96
2023-09-04T20:18:04.545Z,20.93
2023-09-04T20:20:31.125Z,20.84
2023-09-04T20:22:57.696Z,20.79
2023-09-04T20:25:24.316Z,20.80
2023-09-04T20:27:50.892Z,20.72
2023-09-04T20:30:18.994Z,20.56
2023-09-04T20:32:45.694Z,20.37
2023-09-04T20:35:12.387Z,20.27
2023-09-04T20:37:39.046Z,20.26
2023-09-04T20:40:06.131Z,20.23
2023-09-04T20:42:32.713Z,20.12
2023-09-04T20:44:59.375Z,20.03
2023-09-04T20:47:26.135Z,19.98
2023-09-04T20:49:52.742Z,19.94
2023-09-04T20:52:19.283Z,19.89
2023-09-04T20:54:45.850Z,19.86
2023-09-04T20:57:12.447Z,19.81
2023-09-04T20:59:39.017Z,19.75
2023-09-04T21:02:07.218Z,19.76
2023-09-04T21:04:33.745Z,19.70
2023-09-04T21:07:09.058Z,19.65
2023-09-04T21:09:35.918Z,19.61
2023-09-04T21:12:21.125Z,19.60
2023-09-04T21:15:06.035Z,19.59
2023-09-04T21:17:51.105Z,19.52
2023-09-04T21:20:36.340Z,19.48
2023-09-04T21:23:21.717Z,19.44
2023-09-04T21:26:10.107Z,19.43
2023-09-04T21:28:55.471Z,19.35
2023-09-04T21:31:40.345Z,19.31
2023-09-04T21:34:25.526Z,19.21
2023-09-04T21:37:10.379Z,19.19
2023-09-04T21:39:55.458Z,19.14
2023-09-04T21:42:40.338Z,19.10
2023-09-04T21:45:26.001Z,19.08
2023-09-04T21:48:10.870Z,19.09
2023-09-04T21:50:55.641Z,19.11
2023-09-04T21:53:40.379Z,19.06
2023-09-04T21:56:25.170Z,19.06
2023-09-04T21:59:09.993Z,19.02
2023-09-04T22:01:55.181Z,18.89
2023-09-04T22:04:40.400Z,18.80
2023-09-04T22:07:25.290Z,18.76
2023-09-04T22:10:10.137Z,18.79
2023-09-04T22:12:55.362Z,18.78
2023-09-04T22:15:40.479Z,18.81
2023-09-04T22:18:40.286Z,18.83
2023-09-04T22:21:25.630Z,18.82
2023-09-04T22:24:10.879Z,18.85
2023-09-04T22:26:56.797Z,18.84
2023-09-04T22:29:43.190Z,18.82
2023-09-04T22:32:29.667Z,18.80
2023-09-04T22:35:15.864Z,18.76
2023-09-04T22:38:01.294Z,18.72
2023-09-04T22:40:46.161Z,18.60
2023-09-04T22:43:31.040Z,18.48
2023-09-04T22:46:15.803Z,18.47
2023-09-04T22:49:00.972Z,18.37
2023-09-04T22:51:45.812Z,18.38
2023-09-04T22:54:30.520Z,18.42
2023-09-04T22:57:15.286Z,18.39
2023-09-04T23:00:00.332Z,18.42
2023-09-04T23:02:45.206Z,18.42
2023-09-04T23:05:30.063Z,18.43
2023-09-04T23:08:15.382Z,18.37
2023-09-04T23:11:00.645Z,18.19
2023-09-04T23:13:46.108Z,18.01
2023-09-04T23:16:30.968Z,17.97
2023-09-04T23:19:16.136Z,17.93
2023-09-04T23:21:42.692Z,17.96
2023-09-04T23:24:14.812Z,17.92
2023-09-04T23:26:42.009Z,17.92
2023-09-04T23:29:17.232Z,17.96
2023-09-04T23:31:48.929Z,17.94
2023-09-04T23:34:29.799Z,17.88
2023-09-04T23:37:14.129Z,17.89
2023-09-04T23:40:01.211Z,17.92
2023-09-04T23:42:53.476Z,17.91
2023-09-04T23:45:20.652Z,17.90
2023-09-04T23:47:51.934Z,17.87
2023-09-04T23:50:21.566Z,17.80
2023-09-04T23:52:52.949Z,17.76
2023-09-04T23:55:21.007Z,17.78
2023-09-04T23:57:50.411Z,17.82
